sensor_id;sensor_type;location;lat;lon;timestamp;temperature;humidity
34542;DHT22;20784;51.332;12.410;2023-01-24T00:01:26;2.60;99.90
34542;DHT22;20784;51.332;12.410;2023-01-24T00:03:56;2.50;99.90
34542;DHT22;20784;51.332;12.410;2023-01-24T00:06:25;2.60;99.90
34542;DHT22;20784;51.332;12.410;2023-01-24T00:08:51;2.60;99.90
34542;DHT22;20784;51.332;12.410;2023-01-24T00:11:38;2.60;99.90
34542;DHT22;20784;51.332;12.410;2023-01-24T00:14:04;2.50;99.90
34542;DHT22;20784;51.332;12.410;2023-01-24T00:16:43;2.50;99.90
34542;DHT22;20784;51.332;12.410;2023-01-24T00:19:19;2.60;99.90
34542;DHT22;20784;51.332;12.410;2023-01-24T00:21:47;2.60;99.90
34542;DHT22;20784;51.332;12.410;2023-01-24T00:27:37;2.70;99.90
34542;DHT22;20784;51.332;12.410;2023-01-24T00:30:06;2.70;99.90
34542;DHT22;20784;51.332;12.410;2023-01-24T00:33:01;2.70;99.90
34542;DHT22;20784;51.332;12.410;2023-01-24T00:35:27;2.60;99.90
34542;DHT22;20784;51.332;12.410;2023-01-24T00:37:58;2.60;99.90
34542;DHT22;20784;51.332;12.410;2023-01-24T00:40:26;2.60;99.90
34542;DHT22;20784;51.332;12.410;2023-01-24T00:42:59;2.60;99.90
34542;DHT22;20784;51.332;12.410;2023-01-24T00:45:25;2.50;99.90
34542;DHT22;20784;51.332;12.410;2023-01-24T00:47:50;2.50;99.90
34542;DHT22;20784;51.332;12.410;2023-01-24T00:50:18;2.60;99.90
34542;DHT22;20784;51.332;12.410;2023-01-24T00:52:50;2.60;99.90
34542;DHT22;20784;51.332;12.410;2023-01-24T00:55:15;2.50;99.90
34542;DHT22;20784;51.332;12.410;2023-01-24T00:57:50;2.50;99.90
34542;DHT22;20784;51.332;12.410;2023-01-24T01:00:21;2.40;99.90
34542;DHT22;20784;51.332;12.410;2023-01-24T01:02:51;2.40;99.90
34542;DHT22;20784;51.332;12.410;2023-01-24T01:05:17;2.40;99.90
34542;DHT22;20784;51.332;12.410;2023-01-24T01:07:43;2.40;99.90
34542;DHT22;20784;51.332;12.410;2023-01-24T01:10:10;2.50;99.90
34542;DHT22;20784;51.332;12.410;2023-01-24T01:12:36;2.50;99.90
34542;DHT22;20784;51.332;12.410;2023-01-24T01:15:04;2.40;99.90
34542;DHT22;20784;51.332;12.410;2023-01-24T01:17:30;2.50;99.90
34542;DHT22;20784;51.332;12.410;2023-01-24T01:19:55;2.50;99.90
34542;DHT22;20784;51.332;12.410;2023-01-24T01:22:21;2.50;99.90
34542;DHT22;20784;51.332;12.410;2023-01-24T01:24:47;2.50;99.90
34542;DHT22;20784;51.332;12.410;2023-01-24T01:27:12;2.50;99.90
34542;DHT22;20784;51.332;12.410;2023-01-24T01:29:38;2.40;99.90
34542;DHT22;20784;51.332;12.410;2023-01-24T01:32:07;2.50;99.90
34542;DHT22;20784;51.332;12.410;2023-01-24T01:34:33;2.40;99.90
34542;DHT22;20784;51.332;12.410;2023-01-24T01:36:58;2.40;99.90
34542;DHT22;20784;51.332;12.410;2023-01-24T01:39:24;2.40;99.90
34542;DHT22;20784;51.332;12.410;2023-01-24T01:41:53;2.40;99.90
34542;DHT22;20784;51.332;12.410;2023-01-24T01:44:31;2.40;99.90
34542;DHT22;20784;51.332;12.410;2023-01-24T01:49:58;2.30;99.90
34542;DHT22;20784;51.332;12.410;2023-01-24T01:52:29;2.40;99.90
34542;DHT22;20784;51.332;12.410;2023-01-24T01:55:01;2.50;99.90
34542;DHT22;20784;51.332;12.410;2023-01-24T01:57:30;2.50;99.90
34542;DHT22;20784;51.332;12.410;2023-01-24T02:00:13;2.50;99.90
34542;DHT22;20784;51.332;12.410;2023-01-24T02:02:43;2.50;99.90
34542;DHT22;20784;51.332;12.410;2023-01-24T02:05:16;2.50;99.90
34542;DHT22;20784;51.332;12.410;2023-01-24T02:07:59;2.50;99.90
34542;DHT22;20784;51.332;12.410;2023-01-24T02:10:27;2.50;99.90
34542;DHT22;20784;51.332;12.410;2023-01-24T02:13:13;2.50;99.90
34542;DHT22;20784;51.332;12.410;2023-01-24T02:15:38;2.50;99.90
34542;DHT22;20784;51.332;12.410;2023-01-24T02:18:23;2.50;99.90
34542;DHT22;20784;51.332;12.410;2023-01-24T02:20:48;2.50;99.90
34542;DHT22;20784;51.332;12.410;2023-01-24T02:26:09;2.50;99.90
34542;DHT22;20784;51.332;12.410;2023-01-24T02:28:35;2.50;99.90
34542;DHT22;20784;51.332;12.410;2023-01-24T02:33:48;2.50;99.90
34542;DHT22;20784;51.332;12.410;2023-01-24T02:38:50;2.60;99.90
34542;DHT22;20784;51.332;12.410;2023-01-24T02:41:19;2.60;99.90
34542;DHT22;20784;51.332;12.410;2023-01-24T02:43:48;2.60;99.90
34542;DHT22;20784;51.332;12.410;2023-01-24T02:46:17;2.70;99.90
34542;DHT22;20784;51.332;12.410;2023-01-24T02:48:51;2.70;99.90
34542;DHT22;20784;51.332;12.410;2023-01-24T02:51:19;2.70;99.90
34542;DHT22;20784;51.332;12.410;2023-01-24T02:54:03;2.80;99.90
34542;DHT22;20784;51.332;12.410;2023-01-24T02:56:29;2.70;99.90
34542;DHT22;20784;51.332;12.410;2023-01-24T02:59:13;2.70;99.90
34542;DHT22;20784;51.332;12.410;2023-01-24T03:01:38;2.70;99.90
34542;DHT22;20784;51.332;12.410;2023-01-24T03:04:09;2.70;99.90
34542;DHT22;20784;51.332;12.410;2023-01-24T03:06:37;2.70;99.90
34542;DHT22;20784;51.332;12.410;2023-01-24T03:09:02;2.70;99.90
34542;DHT22;20784;51.332;12.410;2023-01-24T03:11:48;2.70;99.90
34542;DHT22;20784;51.332;12.410;2023-01-24T03:14:19;2.70;99.90
34542;DHT22;20784;51.332;12.410;2023-01-24T03:17:03;2.70;99.90
34542;DHT22;20784;51.332;12.410;2023-01-24T03:19:49;2.80;99.90
34542;DHT22;20784;51.332;12.410;2023-01-24T03:22:37;2.70;99.90
34542;DHT22;20784;51.332;12.410;2023-01-24T03:25:32;2.60;99.90
34542;DHT22;20784;51.332;12.410;2023-01-24T03:28:16;2.60;99.90
34542;DHT22;20784;51.332;12.410;2023-01-24T03:31:05;2.60;99.90
34542;DHT22;20784;51.332;12.410;2023-01-24T03:33:49;2.70;99.90
34542;DHT22;20784;51.332;12.410;2023-01-24T03:36:33;2.60;99.90
34542;DHT22;20784;51.332;12.410;2023-01-24T03:38:59;2.60;99.90
34542;DHT22;20784;51.332;12.410;2023-01-24T03:41:43;2.60;99.90
34542;DHT22;20784;51.332;12.410;2023-01-24T03:44:11;2.60;99.90
34542;DHT22;20784;51.332;12.410;2023-01-24T03:46:37;2.70;99.90
34542;DHT22;20784;51.332;12.410;2023-01-24T03:49:11;2.60;99.90
34542;DHT22;20784;51.332;12.410;2023-01-24T03:51:37;2.50;99.90
34542;DHT22;20784;51.332;12.410;2023-01-24T03:54:21;2.50;99.90
34542;DHT22;20784;51.332;12.410;2023-01-24T03:56:47;2.60;99.90
34542;DHT22;20784;51.332;12.410;2023-01-24T03:59:24;2.50;99.90
34542;DHT22;20784;51.332;12.410;2023-01-24T04:01:55;2.50;99.90
34542;DHT22;20784;51.332;12.410;2023-01-24T04:04:26;2.50;99.90
34542;DHT22;20784;51.332;12.410;2023-01-24T04:07:12;2.60;99.90
34542;DHT22;20784;51.332;12.410;2023-01-24T04:09:37;2.60;99.90
34542;DHT22;20784;51.332;12.410;2023-01-24T04:12:12;2.50;99.90
34542;DHT22;20784;51.332;12.410;2023-01-24T04:14:41;2.50;99.90
34542;DHT22;20784;51.332;12.410;2023-01-24T04:17:19;2.60;99.90
34542;DHT22;20784;51.332;12.410;2023-01-24T04:19:45;2.50;99.90
34542;DHT22;20784;51.332;12.410;2023-01-24T04:22:15;2.50;99.90
34542;DHT22;20784;51.332;12.410;2023-01-24T04:24:41;2.40;99.90
34542;DHT22;20784;51.332;12.410;2023-01-24T04:27:06;2.40;99.90
34542;DHT22;20784;51.332;12.410;2023-01-24T04:29:32;2.50;99.90
34542;DHT22;20784;51.332;12.410;2023-01-24T04:31:58;2.40;99.90
34542;DHT22;20784;51.332;12.410;2023-01-24T04:34:26;2.40;99.90
34542;DHT22;20784;51.332;12.410;2023-01-24T04:36:52;2.50;99.90
34542;DHT22;20784;51.332;12.410;2023-01-24T04:39:18;2.50;99.90
34542;DHT22;20784;51.332;12.410;2023-01-24T04:41:46;2.40;99.90
34542;DHT22;20784;51.332;12.410;2023-01-24T04:44:14;2.40;99.90
34542;DHT22;20784;51.332;12.410;2023-01-24T04:46:42;2.30;99.90
34542;DHT22;20784;51.332;12.410;2023-01-24T04:49:08;2.30;99.90
34542;DHT22;20784;51.332;12.410;2023-01-24T04:51:41;2.40;99.90
34542;DHT22;20784;51.332;12.410;2023-01-24T04:54:10;2.40;99.90
34542;DHT22;20784;51.332;12.410;2023-01-24T04:56:36;2.30;99.90
34542;DHT22;20784;51.332;12.410;2023-01-24T04:59:02;2.30;99.90
34542;DHT22;20784;51.332;12.410;2023-01-24T05:01:30;2.30;99.90
34542;DHT22;20784;51.332;12.410;2023-01-24T05:03:56;2.30;99.90
34542;DHT22;20784;51.332;12.410;2023-01-24T05:06:31;2.30;99.90
34542;DHT22;20784;51.332;12.410;2023-01-24T05:08:57;2.30;99.90
34542;DHT22;20784;51.332;12.410;2023-01-24T05:11:23;2.40;99.90
34542;DHT22;20784;51.332;12.410;2023-01-24T05:13:49;2.40;99.90
34542;DHT22;20784;51.332;12.410;2023-01-24T05:16:24;2.40;99.90
34542;DHT22;20784;51.332;12.410;2023-01-24T05:18:57;2.40;99.90
34542;DHT22;20784;51.332;12.410;2023-01-24T05:21:25;2.40;99.90
34542;DHT22;20784;51.332;12.410;2023-01-24T05:23:52;2.50;99.90
34542;DHT22;20784;51.332;12.410;2023-01-24T05:26:19;2.50;99.90
34542;DHT22;20784;51.332;12.410;2023-01-24T05:28:45;2.50;99.90
34542;DHT22;20784;51.332;12.410;2023-01-24T05:31:11;2.50;99.90
34542;DHT22;20784;51.332;12.410;2023-01-24T05:33:36;2.50;99.90
34542;DHT22;20784;51.332;12.410;2023-01-24T05:36:05;2.50;99.90
34542;DHT22;20784;51.332;12.410;2023-01-24T05:38:31;2.50;99.90
34542;DHT22;20784;51.332;12.410;2023-01-24T05:41:06;2.50;99.90
34542;DHT22;20784;51.332;12.410;2023-01-24T05:43:33;2.50;99.90
34542;DHT22;20784;51.332;12.410;2023-01-24T05:49:11;2.40;99.90
34542;DHT22;20784;51.332;12.410;2023-01-24T05:51:44;2.40;99.90
34542;DHT22;20784;51.332;12.410;2023-01-24T05:54:19;2.40;99.90
34542;DHT22;20784;51.332;12.410;2023-01-24T05:56:44;2.40;99.90
34542;DHT22;20784;51.332;12.410;2023-01-24T05:59:18;2.40;99.90
34542;DHT22;20784;51.332;12.410;2023-01-24T06:01:44;2.40;99.90
34542;DHT22;20784;51.332;12.410;2023-01-24T06:04:10;2.50;99.90
34542;DHT22;20784;51.332;12.410;2023-01-24T06:06:35;2.50;99.90
34542;DHT22;20784;51.332;12.410;2023-01-24T06:09:01;2.50;99.90
34542;DHT22;20784;51.332;12.410;2023-01-24T06:11:28;2.60;99.90
34542;DHT22;20784;51.332;12.410;2023-01-24T06:13:57;2.50;99.90
34542;DHT22;20784;51.332;12.410;2023-01-24T06:16:24;2.40;99.90
34542;DHT22;20784;51.332;12.410;2023-01-24T06:18:53;2.40;99.90
34542;DHT22;20784;51.332;12.410;2023-01-24T06:21:48;2.40;99.90
34542;DHT22;20784;51.332;12.410;2023-01-24T06:24:26;2.30;99.90
34542;DHT22;20784;51.332;12.410;2023-01-24T06:26:52;2.30;99.90
34542;DHT22;20784;51.332;12.410;2023-01-24T06:29:24;2.30;99.90
34542;DHT22;20784;51.332;12.410;2023-01-24T06:37:50;2.40;99.90
34542;DHT22;20784;51.332;12.410;2023-01-24T06:43:52;2.40;99.90
34542;DHT22;20784;51.332;12.410;2023-01-24T06:46:33;2.40;99.90
34542;DHT22;20784;51.332;12.410;2023-01-24T06:49:01;2.40;99.90
34542;DHT22;20784;51.332;12.410;2023-01-24T06:51:26;2.50;99.90
34542;DHT22;20784;51.332;12.410;2023-01-24T06:53:52;2.40;99.90
34542;DHT22;20784;51.332;12.410;2023-01-24T06:56:18;2.40;99.90
34542;DHT22;20784;51.332;12.410;2023-01-24T06:58:46;2.40;99.90
34542;DHT22;20784;51.332;12.410;2023-01-24T07:01:16;2.40;99.90
34542;DHT22;20784;51.332;12.410;2023-01-24T07:03:41;2.50;99.90
34542;DHT22;20784;51.332;12.410;2023-01-24T07:06:07;2.50;99.90
34542;DHT22;20784;51.332;12.410;2023-01-24T07:08:33;2.50;99.90
34542;DHT22;20784;51.332;12.410;2023-01-24T07:11:18;2.50;99.90
34542;DHT22;20784;51.332;12.410;2023-01-24T07:13:44;2.50;99.90
34542;DHT22;20784;51.332;12.410;2023-01-24T07:16:13;2.50;99.90
34542;DHT22;20784;51.332;12.410;2023-01-24T07:18:42;2.50;99.90
34542;DHT22;20784;51.332;12.410;2023-01-24T07:21:11;2.40;99.90
34542;DHT22;20784;51.332;12.410;2023-01-24T07:23:37;2.50;99.90
34542;DHT22;20784;51.332;12.410;2023-01-24T07:26:03;2.40;99.90
34542;DHT22;20784;51.332;12.410;2023-01-24T07:28:29;2.40;99.90
34542;DHT22;20784;51.332;12.410;2023-01-24T07:30:55;2.40;99.90
34542;DHT22;20784;51.332;12.410;2023-01-24T07:33:25;2.40;99.90
34542;DHT22;20784;51.332;12.410;2023-01-24T07:35:51;2.50;99.90
34542;DHT22;20784;51.332;12.410;2023-01-24T07:38:19;2.40;99.90
34542;DHT22;20784;51.332;12.410;2023-01-24T07:40:45;2.40;99.90
34542;DHT22;20784;51.332;12.410;2023-01-24T07:43:14;2.40;99.90
34542;DHT22;20784;51.332;12.410;2023-01-24T07:45:39;2.40;99.90
34542;DHT22;20784;51.332;12.410;2023-01-24T07:48:09;2.50;99.90
34542;DHT22;20784;51.332;12.410;2023-01-24T07:50:35;2.40;99.90
34542;DHT22;20784;51.332;12.410;2023-01-24T07:53:01;2.40;99.90
34542;DHT22;20784;51.332;12.410;2023-01-24T07:55:27;2.40;99.90
34542;DHT22;20784;51.332;12.410;2023-01-24T07:57:58;2.30;99.90
34542;DHT22;20784;51.332;12.410;2023-01-24T08:00:24;2.30;99.90
34542;DHT22;20784;51.332;12.410;2023-01-24T08:02:49;2.30;99.90
34542;DHT22;20784;51.332;12.410;2023-01-24T08:05:15;2.30;99.90
34542;DHT22;20784;51.332;12.410;2023-01-24T08:07:41;2.40;99.90
34542;DHT22;20784;51.332;12.410;2023-01-24T08:10:07;2.40;99.90
34542;DHT22;20784;51.332;12.410;2023-01-24T08:12:35;2.40;99.90
34542;DHT22;20784;51.332;12.410;2023-01-24T08:15:04;2.50;99.90
34542;DHT22;20784;51.332;12.410;2023-01-24T08:17:31;2.50;99.90
34542;DHT22;20784;51.332;12.410;2023-01-24T08:19:57;2.50;99.90
34542;DHT22;20784;51.332;12.410;2023-01-24T08:22:29;2.50;99.90
34542;DHT22;20784;51.332;12.410;2023-01-24T08:24:57;2.60;99.90
34542;DHT22;20784;51.332;12.410;2023-01-24T08:27:23;2.50;99.90
34542;DHT22;20784;51.332;12.410;2023-01-24T08:29:51;2.40;99.90
34542;DHT22;20784;51.332;12.410;2023-01-24T08:32:33;2.40;99.90
34542;DHT22;20784;51.332;12.410;2023-01-24T08:35:22;2.40;99.90
34542;DHT22;20784;51.332;12.410;2023-01-24T08:38:08;2.40;99.90
34542;DHT22;20784;51.332;12.410;2023-01-24T08:40:38;2.60;99.90
34542;DHT22;20784;51.332;12.410;2023-01-24T08:43:09;2.60;99.90
34542;DHT22;20784;51.332;12.410;2023-01-24T08:45:47;2.50;99.90
34542;DHT22;20784;51.332;12.410;2023-01-24T08:48:19;2.40;99.90
34542;DHT22;20784;51.332;12.410;2023-01-24T08:50:52;2.40;99.90
34542;DHT22;20784;51.332;12.410;2023-01-24T08:53:23;2.30;99.90
34542;DHT22;20784;51.332;12.410;2023-01-24T08:55:52;2.40;99.90
34542;DHT22;20784;51.332;12.410;2023-01-24T08:58:42;2.50;99.90
34542;DHT22;20784;51.332;12.410;2023-01-24T09:01:09;2.50;99.90
34542;DHT22;20784;51.332;12.410;2023-01-24T09:03:46;2.50;99.90
34542;DHT22;20784;51.332;12.410;2023-01-24T09:06:24;2.50;99.90
34542;DHT22;20784;51.332;12.410;2023-01-24T09:08:52;2.50;99.90
34542;DHT22;20784;51.332;12.410;2023-01-24T09:11:18;2.60;99.90
34542;DHT22;20784;51.332;12.410;2023-01-24T09:13:44;2.50;99.90
34542;DHT22;20784;51.332;12.410;2023-01-24T09:16:09;2.50;99.90
34542;DHT22;20784;51.332;12.410;2023-01-24T09:18:35;2.50;99.90
34542;DHT22;20784;51.332;12.410;2023-01-24T09:21:02;2.50;99.90
34542;DHT22;20784;51.332;12.410;2023-01-24T09:23:29;2.60;99.90
34542;DHT22;20784;51.332;12.410;2023-01-24T09:25:59;2.70;99.90
34542;DHT22;20784;51.332;12.410;2023-01-24T09:28:31;2.50;99.90
34542;DHT22;20784;51.332;12.410;2023-01-24T09:31:07;2.70;99.90
34542;DHT22;20784;51.332;12.410;2023-01-24T09:33:33;2.60;99.90
34542;DHT22;20784;51.332;12.410;2023-01-24T09:36:02;2.70;99.90
34542;DHT22;20784;51.332;12.410;2023-01-24T09:38:31;2.70;99.90
34542;DHT22;20784;51.332;12.410;2023-01-24T09:41:26;2.70;99.90
34542;DHT22;20784;51.332;12.410;2023-01-24T09:44:00;2.70;99.90
34542;DHT22;20784;51.332;12.410;2023-01-24T09:46:44;2.60;99.90
34542;DHT22;20784;51.332;12.410;2023-01-24T09:51:58;2.70;99.90
34542;DHT22;20784;51.332;12.410;2023-01-24T09:54:53;2.80;99.90
34542;DHT22;20784;51.332;12.410;2023-01-24T09:57:40;2.80;99.90
34542;DHT22;20784;51.332;12.410;2023-01-24T10:00:25;2.70;99.90
34542;DHT22;20784;51.332;12.410;2023-01-24T10:02:56;2.90;99.90
34542;DHT22;20784;51.332;12.410;2023-01-24T10:05:30;2.90;99.90
34542;DHT22;20784;51.332;12.410;2023-01-24T10:08:17;2.80;99.90
34542;DHT22;20784;51.332;12.410;2023-01-24T10:13:29;2.90;99.90
34542;DHT22;20784;51.332;12.410;2023-01-24T10:16:24;2.90;99.90
34542;DHT22;20784;51.332;12.410;2023-01-24T10:23:59;2.90;99.90
34542;DHT22;20784;51.332;12.410;2023-01-24T10:26:48;2.90;99.90
34542;DHT22;20784;51.332;12.410;2023-01-24T10:29:23;3.00;99.90
34542;DHT22;20784;51.332;12.410;2023-01-24T10:31:56;3.00;99.90
34542;DHT22;20784;51.332;12.410;2023-01-24T10:34:37;3.00;99.90
34542;DHT22;20784;51.332;12.410;2023-01-24T10:37:23;3.00;99.90
34542;DHT22;20784;51.332;12.410;2023-01-24T10:39:50;3.10;99.90
34542;DHT22;20784;51.332;12.410;2023-01-24T10:42:29;3.10;99.90
34542;DHT22;20784;51.332;12.410;2023-01-24T10:51:11;3.00;99.90
34542;DHT22;20784;51.332;12.410;2023-01-24T10:53:40;2.90;99.90
34542;DHT22;20784;51.332;12.410;2023-01-24T10:56:09;2.90;99.90
34542;DHT22;20784;51.332;12.410;2023-01-24T11:04:22;3.00;99.90
34542;DHT22;20784;51.332;12.410;2023-01-24T11:06:49;3.00;99.90
34542;DHT22;20784;51.332;12.410;2023-01-24T11:09:21;3.00;99.90
34542;DHT22;20784;51.332;12.410;2023-01-24T11:11:59;3.10;99.90
34542;DHT22;20784;51.332;12.410;2023-01-24T11:14:32;3.20;99.90
34542;DHT22;20784;51.332;12.410;2023-01-24T11:17:00;3.10;99.90
34542;DHT22;20784;51.332;12.410;2023-01-24T11:21:58;3.00;99.90
34542;DHT22;20784;51.332;12.410;2023-01-24T11:24:28;2.90;99.90
34542;DHT22;20784;51.332;12.410;2023-01-24T11:27:19;3.00;99.90
34542;DHT22;20784;51.332;12.410;2023-01-24T11:30:13;2.90;99.90
34542;DHT22;20784;51.332;12.410;2023-01-24T11:32:57;2.90;99.90
34542;DHT22;20784;51.332;12.410;2023-01-24T11:35:46;2.80;99.90
34542;DHT22;20784;51.332;12.410;2023-01-24T11:38:31;2.80;99.90
34542;DHT22;20784;51.332;12.410;2023-01-24T11:41:15;2.80;99.90
34542;DHT22;20784;51.332;12.410;2023-01-24T11:43:53;2.80;99.90
34542;DHT22;20784;51.332;12.410;2023-01-24T11:57:36;2.90;99.90
34542;DHT22;20784;51.332;12.410;2023-01-24T12:00:26;2.90;99.90
34542;DHT22;20784;51.332;12.410;2023-01-24T12:03:23;2.90;99.90
34542;DHT22;20784;51.332;12.410;2023-01-24T12:06:13;3.00;99.90
34542;DHT22;20784;51.332;12.410;2023-01-24T12:11:39;3.00;99.90
34542;DHT22;20784;51.332;12.410;2023-01-24T12:22:23;3.00;99.90
34542;DHT22;20784;51.332;12.410;2023-01-24T12:25:00;2.90;99.90
34542;DHT22;20784;51.332;12.410;2023-01-24T12:27:31;2.90;99.90
34542;DHT22;20784;51.332;12.410;2023-01-24T12:31:01;3.10;99.90
34542;DHT22;20784;51.332;12.410;2023-01-24T12:33:30;3.10;99.90
34542;DHT22;20784;51.332;12.410;2023-01-24T12:36:15;3.10;99.90
34542;DHT22;20784;51.332;12.410;2023-01-24T12:38:45;3.10;99.90
34542;DHT22;20784;51.332;12.410;2023-01-24T12:44:30;3.00;99.90
34542;DHT22;20784;51.332;12.410;2023-01-24T12:55:27;3.00;99.90
34542;DHT22;20784;51.332;12.410;2023-01-24T12:58:16;3.00;99.90
34542;DHT22;20784;51.332;12.410;2023-01-24T13:04:01;2.90;99.90
34542;DHT22;20784;51.332;12.410;2023-01-24T13:12:02;3.10;99.90
34542;DHT22;20784;51.332;12.410;2023-01-24T13:14:42;3.00;99.90
34542;DHT22;20784;51.332;12.410;2023-01-24T13:20:25;2.80;99.90
34542;DHT22;20784;51.332;12.410;2023-01-24T13:23:03;2.80;99.90
34542;DHT22;20784;51.332;12.410;2023-01-24T13:25:37;2.80;99.90
34542;DHT22;20784;51.332;12.410;2023-01-24T13:33:59;3.00;99.90
34542;DHT22;20784;51.332;12.410;2023-01-24T13:36:40;3.00;99.90
34542;DHT22;20784;51.332;12.410;2023-01-24T13:39:38;2.80;99.90
34542;DHT22;20784;51.332;12.410;2023-01-24T13:42:24;2.70;99.90
34542;DHT22;20784;51.332;12.410;2023-01-24T13:54:17;2.80;99.90
34542;DHT22;20784;51.332;12.410;2023-01-24T13:57:11;2.80;99.90
34542;DHT22;20784;51.332;12.410;2023-01-24T14:00:02;2.70;99.90
34542;DHT22;20784;51.332;12.410;2023-01-24T14:10:53;2.70;99.90
34542;DHT22;20784;51.332;12.410;2023-01-24T14:25:01;2.70;99.90
34542;DHT22;20784;51.332;12.410;2023-01-24T14:27:45;2.60;99.90
34542;DHT22;20784;51.332;12.410;2023-01-24T14:30:19;2.70;99.90
34542;DHT22;20784;51.332;12.410;2023-01-24T14:32:53;2.50;99.90
34542;DHT22;20784;51.332;12.410;2023-01-24T14:35:48;2.50;99.90
34542;DHT22;20784;51.332;12.410;2023-01-24T14:38:19;2.50;99.90
34542;DHT22;20784;51.332;12.410;2023-01-24T14:40:49;2.50;99.90
34542;DHT22;20784;51.332;12.410;2023-01-24T14:43:20;2.50;99.90
34542;DHT22;20784;51.332;12.410;2023-01-24T14:45:48;2.50;99.90
34542;DHT22;20784;51.332;12.410;2023-01-24T14:48:22;2.50;99.90
34542;DHT22;20784;51.332;12.410;2023-01-24T14:51:04;2.40;99.90
34542;DHT22;20784;51.332;12.410;2023-01-24T14:53:32;2.50;99.90
34542;DHT22;20784;51.332;12.410;2023-01-24T14:56:08;2.50;99.90
34542;DHT22;20784;51.332;12.410;2023-01-24T14:58:34;2.50;99.90
34542;DHT22;20784;51.332;12.410;2023-01-24T15:01:01;2.50;99.90
34542;DHT22;20784;51.332;12.410;2023-01-24T15:03:30;2.50;99.90
34542;DHT22;20784;51.332;12.410;2023-01-24T15:06:04;2.50;99.90
34542;DHT22;20784;51.332;12.410;2023-01-24T15:08:31;2.40;99.90
34542;DHT22;20784;51.332;12.410;2023-01-24T15:11:05;2.50;99.90
34542;DHT22;20784;51.332;12.410;2023-01-24T15:13:51;2.50;99.90
34542;DHT22;20784;51.332;12.410;2023-01-24T15:16:24;2.60;99.90
34542;DHT22;20784;51.332;12.410;2023-01-24T15:18:55;2.60;99.90
34542;DHT22;20784;51.332;12.410;2023-01-24T15:21:43;2.60;99.90
34542;DHT22;20784;51.332;12.410;2023-01-24T15:24:29;2.70;99.90
34542;DHT22;20784;51.332;12.410;2023-01-24T15:26:59;2.70;99.90
34542;DHT22;20784;51.332;12.410;2023-01-24T15:29:45;2.60;99.90
34542;DHT22;20784;51.332;12.410;2023-01-24T15:32:37;2.60;99.90
34542;DHT22;20784;51.332;12.410;2023-01-24T15:38:27;2.70;99.90
34542;DHT22;20784;51.332;12.410;2023-01-24T15:44:00;2.60;99.90
34542;DHT22;20784;51.332;12.410;2023-01-24T15:46:41;2.60;99.90
34542;DHT22;20784;51.332;12.410;2023-01-24T15:49:31;2.70;99.90
34542;DHT22;20784;51.332;12.410;2023-01-24T15:52:12;2.50;99.90
34542;DHT22;20784;51.332;12.410;2023-01-24T15:54:41;2.40;99.90
34542;DHT22;20784;51.332;12.410;2023-01-24T15:59:43;2.40;99.90
34542;DHT22;20784;51.332;12.410;2023-01-24T16:02:14;2.40;99.90
34542;DHT22;20784;51.332;12.410;2023-01-24T16:04:40;2.30;99.90
34542;DHT22;20784;51.332;12.410;2023-01-24T16:07:06;2.40;99.90
34542;DHT22;20784;51.332;12.410;2023-01-24T16:09:37;2.30;99.90
34542;DHT22;20784;51.332;12.410;2023-01-24T16:12:05;2.30;99.90
34542;DHT22;20784;51.332;12.410;2023-01-24T16:14:36;2.40;99.90
34542;DHT22;20784;51.332;12.410;2023-01-24T16:17:38;2.30;99.90
34542;DHT22;20784;51.332;12.410;2023-01-24T16:20:27;2.30;99.90
34542;DHT22;20784;51.332;12.410;2023-01-24T16:22:54;2.30;99.90
34542;DHT22;20784;51.332;12.410;2023-01-24T16:25:21;2.40;99.90
34542;DHT22;20784;51.332;12.410;2023-01-24T16:27:48;2.40;99.90
34542;DHT22;20784;51.332;12.410;2023-01-24T16:30:23;2.50;99.90
34542;DHT22;20784;51.332;12.410;2023-01-24T16:32:52;2.40;99.90
34542;DHT22;20784;51.332;12.410;2023-01-24T16:35:21;2.50;99.90
34542;DHT22;20784;51.332;12.410;2023-01-24T16:37:54;2.50;99.90
34542;DHT22;20784;51.332;12.410;2023-01-24T16:40:20;2.50;99.90
34542;DHT22;20784;51.332;12.410;2023-01-24T16:42:47;2.50;99.90
34542;DHT22;20784;51.332;12.410;2023-01-24T16:45:18;2.50;99.90
34542;DHT22;20784;51.332;12.410;2023-01-24T16:47:57;2.50;99.90
34542;DHT22;20784;51.332;12.410;2023-01-24T16:50:23;2.40;99.90
34542;DHT22;20784;51.332;12.410;2023-01-24T16:52:54;2.50;99.90
34542;DHT22;20784;51.332;12.410;2023-01-24T16:55:23;2.60;99.90
34542;DHT22;20784;51.332;12.410;2023-01-24T16:57:51;2.50;99.90
34542;DHT22;20784;51.332;12.410;2023-01-24T17:00:23;2.50;99.90
34542;DHT22;20784;51.332;12.410;2023-01-24T17:02:49;2.50;99.90
34542;DHT22;20784;51.332;12.410;2023-01-24T17:05:15;2.50;99.90
34542;DHT22;20784;51.332;12.410;2023-01-24T17:07:48;2.40;99.90
34542;DHT22;20784;51.332;12.410;2023-01-24T17:10:20;2.40;99.90
34542;DHT22;20784;51.332;12.410;2023-01-24T17:12:51;2.40;99.90
34542;DHT22;20784;51.332;12.410;2023-01-24T17:15:20;2.40;99.90
34542;DHT22;20784;51.332;12.410;2023-01-24T17:17:48;2.40;99.90
34542;DHT22;20784;51.332;12.410;2023-01-24T17:20:17;2.50;99.90
34542;DHT22;20784;51.332;12.410;2023-01-24T17:22:45;2.50;99.90
34542;DHT22;20784;51.332;12.410;2023-01-24T17:25:13;2.60;99.90
34542;DHT22;20784;51.332;12.410;2023-01-24T17:27:39;2.60;99.90
34542;DHT22;20784;51.332;12.410;2023-01-24T17:30:14;2.60;99.90
34542;DHT22;20784;51.332;12.410;2023-01-24T17:32:40;2.60;99.90
34542;DHT22;20784;51.332;12.410;2023-01-24T17:35:11;2.60;99.90
34542;DHT22;20784;51.332;12.410;2023-01-24T17:37:39;2.70;99.90
34542;DHT22;20784;51.332;12.410;2023-01-24T17:40:05;2.70;99.90
34542;DHT22;20784;51.332;12.410;2023-01-24T17:42:32;2.70;99.90
34542;DHT22;20784;51.332;12.410;2023-01-24T17:44:58;2.70;99.90
34542;DHT22;20784;51.332;12.410;2023-01-24T17:47:27;2.60;99.90
34542;DHT22;20784;51.332;12.410;2023-01-24T17:49:55;2.70;99.90
34542;DHT22;20784;51.332;12.410;2023-01-24T17:52:27;2.70;99.90
34542;DHT22;20784;51.332;12.410;2023-01-24T17:54:56;2.70;99.90
34542;DHT22;20784;51.332;12.410;2023-01-24T17:57:23;2.70;99.90
34542;DHT22;20784;51.332;12.410;2023-01-24T17:59:49;2.70;99.90
34542;DHT22;20784;51.332;12.410;2023-01-24T18:02:15;2.70;99.90
34542;DHT22;20784;51.332;12.410;2023-01-24T18:04:41;2.80;99.90
34542;DHT22;20784;51.332;12.410;2023-01-24T18:07:10;2.80;99.90
34542;DHT22;20784;51.332;12.410;2023-01-24T18:09:36;2.80;99.90
34542;DHT22;20784;51.332;12.410;2023-01-24T18:12:02;2.80;99.90
34542;DHT22;20784;51.332;12.410;2023-01-24T18:14:28;2.70;99.90
34542;DHT22;20784;51.332;12.410;2023-01-24T18:16:54;2.60;99.90
34542;DHT22;20784;51.332;12.410;2023-01-24T18:19:22;2.70;99.90
34542;DHT22;20784;51.332;12.410;2023-01-24T18:21:53;2.70;99.90
34542;DHT22;20784;51.332;12.410;2023-01-24T18:24:21;2.70;99.90